Time;durP1;ratioP1;P1;durP2;ratioP2;P2;SDS_P1;SDS_P2;PMS_P1;PMS_P2;Temp;Humidity;BMP_temperature;BMP_pressure;BME280_temperature;BME280_humidity;BME280_pressure;Samples;Min_cycle;Max_cycle;Signal;HPM_P1;HPM_P2
2021/03/17 00:00:54;;;;;;;3.78;1.58;;;7.90;93.80;;;;;;4994269;28;20263;-77
2021/03/17 00:03:20;;;;;;;3.42;2.30;;;7.80;93.10;;;;;;4986843;28;20062;-76
2021/03/17 00:05:47;;;;;;;6.80;3.58;;;7.80;93.20;;;;;;4994532;28;20058;-76
2021/03/17 00:08:16;;;;;;;2.72;2.25;;;7.70;94.70;;;;;;4995249;28;20030;-76
2021/03/17 00:10:45;;;;;;;2.90;1.73;;;7.60;94.30;;;;;;4996270;28;20072;-76
2021/03/17 00:13:11;;;;;;;2.47;1.27;;;7.60;94.70;;;;;;4996397;28;20041;-76
2021/03/17 00:15:39;;;;;;;3.33;1.52;;;7.60;94.70;;;;;;4996999;28;20039;-76
2021/03/17 00:18:06;;;;;;;2.60;1.65;;;7.60;94.40;;;;;;4996344;28;20062;-77
2021/03/17 00:20:32;;;;;;;2.13;1.23;;;7.50;95.20;;;;;;4995615;28;20025;-76
2021/03/17 00:22:58;;;;;;;2.78;1.10;;;7.50;95.70;;;;;;4992434;28;20039;-77
2021/03/17 00:25:30;;;;;;;2.38;1.55;;;7.40;95.80;;;;;;4992572;28;20029;-76
2021/03/17 00:27:57;;;;;;;2.10;1.23;;;7.30;97.10;;;;;;4991282;28;20027;-77
2021/03/17 00:30:23;;;;;;;1.13;0.73;;;7.30;97.20;;;;;;4989787;28;20045;-76
2021/03/17 00:32:50;;;;;;;2.15;1.65;;;7.20;95.10;;;;;;4993264;28;20031;-77
2021/03/17 00:35:16;;;;;;;2.53;1.20;;;7.20;95.40;;;;;;4991654;28;20058;-76
2021/03/17 00:37:42;;;;;;;6.28;1.88;;;7.20;96.60;;;;;;4992543;28;20316;-76
2021/03/17 00:40:08;;;;;;;4.30;0.93;;;7.10;96.10;;;;;;4991368;28;20052;-77
2021/03/17 00:42:34;;;;;;;1.40;1.02;;;7.10;97.20;;;;;;4993115;28;20003;-76
2021/03/17 00:45:00;;;;;;;3.63;1.55;;;7.30;95.50;;;;;;4990241;28;20054;-76
2021/03/17 00:47:26;;;;;;;3.47;1.48;;;7.40;96.90;;;;;;4980935;28;20033;-79
2021/03/17 00:49:52;;;;;;;1.48;0.88;;;7.50;95.90;;;;;;4977442;28;20034;-76
2021/03/17 00:52:18;;;;;;;1.13;0.82;;;7.40;95.70;;;;;;4977055;28;20030;-77
2021/03/17 00:54:44;;;;;;;1.85;0.85;;;7.40;94.60;;;;;;4977867;28;20039;-77
2021/03/17 00:57:09;;;;;;;4.18;1.90;;;7.40;93.80;;;;;;4978349;28;20066;-77
2021/03/17 00:59:36;;;;;;;2.33;1.25;;;7.30;94.80;;;;;;4977624;28;20050;-77
2021/03/17 01:02:02;;;;;;;2.25;1.15;;;7.30;96.70;;;;;;4976336;28;20449;-78
2021/03/17 01:04:28;;;;;;;2.03;0.90;;;7.30;96.30;;;;;;4976433;28;20023;-77
2021/03/17 01:06:54;;;;;;;2.47;1.08;;;7.20;97.30;;;;;;4976860;28;20019;-77
2021/03/17 01:09:20;;;;;;;1.05;0.80;;;7.20;97.70;;;;;;4981328;28;20031;-77
2021/03/17 01:11:46;;;;;;;5.50;1.30;;;7.30;97.40;;;;;;4979527;28;20034;-77
2021/03/17 01:14:12;;;;;;;1.77;1.15;;;7.20;96.90;;;;;;4977012;28;20027;-77
2021/03/17 01:16:39;;;;;;;1.35;1.20;;;7.20;97.60;;;;;;4976457;28;20110;-77
2021/03/17 01:19:05;;;;;;;1.10;1.00;;;7.20;97.80;;;;;;4975843;28;20033;-79
2021/03/17 01:21:31;;;;;;;2.15;1.27;;;7.10;97.80;;;;;;4976297;28;20034;-77
2021/03/17 01:23:57;;;;;;;1.77;1.17;;;7.00;97.00;;;;;;4977312;28;20023;-76
2021/03/17 01:26:23;;;;;;;1.35;0.98;;;6.90;98.40;;;;;;4977779;28;20481;-77
2021/03/17 01:28:49;;;;;;;1.23;1.13;;;6.80;99.10;;;;;;4976273;28;20030;-76
2021/03/17 01:31:15;;;;;;;1.98;1.75;;;6.80;99.40;;;;;;4975576;28;20069;-77
2021/03/17 01:33:41;;;;;;;5.22;1.35;;;6.70;99.90;;;;;;4971546;28;20397;-77
2021/03/17 01:36:07;;;;;;;1.77;1.05;;;6.60;99.90;;;;;;4970646;28;20069;-77
2021/03/17 01:38:34;;;;;;;2.08;1.00;;;6.60;99.90;;;;;;4965787;28;20063;-79
2021/03/17 01:41:00;;;;;;;2.75;0.90;;;6.50;99.90;;;;;;4965784;28;20019;-77
2021/03/17 01:43:28;;;;;;;1.83;1.10;;;6.30;99.90;;;;;;4966107;28;20507;-76
2021/03/17 01:46:04;;;;;;;2.55;1.00;;;6.20;99.90;;;;;;4966188;28;20031;-77
2021/03/17 01:48:30;;;;;;;1.30;0.85;;;6.40;99.90;;;;;;4980898;28;20046;-77
2021/03/17 01:50:58;;;;;;;2.33;0.82;;;6.60;99.90;;;;;;4974395;28;20031;-76
2021/03/17 01:53:31;;;;;;;1.33;0.80;;;6.60;99.90;;;;;;4978727;28;20034;-76
2021/03/17 01:55:57;;;;;;;0.70;0.70;;;6.60;99.90;;;;;;4986812;28;20058;-77
2021/03/17 01:58:30;;;;;;;0.75;0.35;;;6.60;99.90;;;;;;4977717;28;20057;-76
2021/03/17 02:00:57;;;;;;;0.60;0.40;;;6.60;97.20;;;;;;4976898;28;20023;-77
2021/03/17 02:03:24;;;;;;;1.00;0.80;;;6.60;96.40;;;;;;4978526;28;20400;-77
2021/03/17 02:06:15;;;;;;;1.13;0.70;;;6.60;96.10;;;;;;4975694;28;20029;-77
2021/03/17 02:12:48;;;;;;;1.75;0.90;;;6.50;97.50;;;;;;4967480;28;20030;-76
2021/03/17 02:15:48;;;;;;;0.73;0.73;;;6.70;96.10;;;;;;4970440;28;20026;-76
2021/03/17 02:18:54;;;;;;;0.55;0.50;;;6.70;96.90;;;;;;4978263;28;20027;-77
2021/03/17 02:21:58;;;;;;;0.47;0.45;;;6.60;96.60;;;;;;4973239;28;20493;-76
2021/03/17 02:24:47;;;;;;;2.90;0.30;;;6.60;96.20;;;;;;4976394;28;20022;-76
2021/03/17 02:27:37;;;;;;;2.95;0.50;;;6.50;96.20;;;;;;4965244;28;20031;-76
2021/03/17 02:30:21;;;;;;;1.60;0.70;;;6.60;96.30;;;;;;4977934;28;20030;-76
2021/03/17 02:33:08;;;;;;;0.82;0.60;;;6.60;96.00;;;;;;4975702;28;20031;-76
2021/03/17 02:35:37;;;;;;;0.60;0.60;;;6.70;95.10;;;;;;4966435;28;20035;-76
2021/03/17 02:38:06;;;;;;;1.00;0.75;;;6.60;96.10;;;;;;4973790;28;20052;-76
2021/03/17 02:40:34;;;;;;;3.60;0.77;;;6.60;95.50;;;;;;4973256;28;20033;-76
2021/03/17 02:43:19;;;;;;;1.25;0.82;;;6.50;95.20;;;;;;4974091;28;20027;-76
2021/03/17 02:45:49;;;;;;;0.57;0.40;;;6.60;94.70;;;;;;4970052;28;20058;-76
2021/03/17 02:48:22;;;;;;;1.25;0.65;;;6.60;93.80;;;;;;4971559;28;20023;-76
2021/03/17 02:50:50;;;;;;;0.93;0.40;;;6.70;95.00;;;;;;4968317;28;20035;-76
2021/03/17 02:53:21;;;;;;;1.05;0.63;;;6.70;95.50;;;;;;4973576;28;20054;-76
2021/03/17 02:56:17;;;;;;;0.68;0.68;;;6.60;95.50;;;;;;4972638;28;20117;-76
2021/03/17 02:58:47;;;;;;;0.63;0.63;;;6.60;95.80;;;;;;4964421;28;20042;-76
2021/03/17 03:01:17;;;;;;;1.27;0.40;;;6.60;94.80;;;;;;4967960;28;20027;-76
2021/03/17 03:03:44;;;;;;;4.72;1.15;;;6.80;95.20;;;;;;4970885;28;20035;-76
2021/03/17 03:06:11;;;;;;;2.58;0.90;;;7.00;91.60;;;;;;4975036;28;20022;-76
2021/03/17 03:08:39;;;;;;;3.40;0.80;;;7.50;91.20;;;;;;4974074;28;20034;-76
2021/03/17 03:11:08;;;;;;;0.95;0.70;;;7.50;92.30;;;;;;4970194;28;20027;-76
2021/03/17 03:13:36;;;;;;;1.42;0.75;;;7.40;94.80;;;;;;4969884;28;20404;-76
2021/03/17 03:16:03;;;;;;;0.82;0.40;;;7.30;94.90;;;;;;4972245;28;20034;-76
2021/03/17 03:18:31;;;;;;;1.80;1.00;;;7.20;94.00;;;;;;4974066;28;20023;-76
2021/03/17 03:20:58;;;;;;;1.50;0.57;;;7.30;94.40;;;;;;4969742;28;20038;-76
2021/03/17 03:23:25;;;;;;;1.00;0.90;;;7.20;93.30;;;;;;4972963;28;20149;-76
2021/03/17 03:25:52;;;;;;;2.83;1.30;;;7.20;94.10;;;;;;4973600;28;20034;-76
2021/03/17 03:28:20;;;;;;;0.40;0.40;;;7.10;94.30;;;;;;4973827;28;20105;-76
2021/03/17 03:30:49;;;;;;;0.50;0.50;;;7.10;93.30;;;;;;4974185;28;20027;-76
2021/03/17 03:33:17;;;;;;;0.57;0.32;;;7.10;93.20;;;;;;4973605;28;20080;-76
2021/03/17 03:35:44;;;;;;;1.15;0.63;;;7.10;93.90;;;;;;4971311;28;20038;-76
2021/03/17 03:38:11;;;;;;;0.93;0.80;;;7.10;96.10;;;;;;4972216;28;20121;-76
2021/03/17 03:40:39;;;;;;;1.52;0.60;;;7.10;96.30;;;;;;4977276;28;20054;-76
2021/03/17 03:43:07;;;;;;;1.63;0.80;;;7.10;96.70;;;;;;4970133;28;20027;-76
2021/03/17 03:45:33;;;;;;;1.42;1.00;;;7.10;96.70;;;;;;4971446;28;20037;-75
2021/03/17 03:48:00;;;;;;;2.78;1.83;;;7.10;96.90;;;;;;4974200;28;20030;-76
2021/03/17 03:50:28;;;;;;;3.35;1.77;;;7.10;97.70;;;;;;4973250;28;20027;-76
2021/03/17 03:53:27;;;;;;;0.70;0.70;;;7.00;98.10;;;;;;4973466;28;20673;-76
2021/03/17 03:56:16;;;;;;;2.47;1.65;;;6.80;98.30;;;;;;4975606;28;20033;-76
2021/03/17 03:59:00;;;;;;;3.70;2.00;;;6.70;98.70;;;;;;4975926;28;20058;-76
2021/03/17 04:01:37;;;;;;;6.68;3.70;;;6.70;99.90;;;;;;4977091;28;20054;-76
2021/03/17 04:04:12;;;;;;;7.38;3.53;;;6.60;99.90;;;;;;4974201;28;20386;-76
2021/03/17 04:06:39;;;;;;;3.83;1.48;;;6.50;99.90;;;;;;4969009;28;20039;-76
2021/03/17 04:09:06;;;;;;;1.48;1.05;;;6.30;99.90;;;;;;4976405;28;20121;-76
2021/03/17 04:11:32;;;;;;;2.03;1.42;;;6.20;99.90;;;;;;4974779;28;20038;-76
2021/03/17 04:14:05;;;;;;;1.13;1.02;;;6.30;99.90;;;;;;4972200;28;20037;-76
2021/03/17 04:16:32;;;;;;;1.88;1.10;;;6.30;99.90;;;;;;4975272;28;20069;-76
2021/03/17 04:19:00;;;;;;;1.10;0.57;;;6.20;99.90;;;;;;4972551;28;20210;-76
2021/03/17 04:21:29;;;;;;;1.85;1.08;;;6.20;99.90;;;;;;4971571;28;20058;-76
2021/03/17 04:23:58;;;;;;;2.75;1.08;;;6.20;99.90;;;;;;4974028;28;20384;-76
2021/03/17 04:26:25;;;;;;;1.38;1.27;;;6.10;99.90;;;;;;4975495;28;20015;-76
2021/03/17 04:28:54;;;;;;;1.42;0.80;;;6.00;99.90;;;;;;4974774;28;20405;-76
2021/03/17 04:31:21;;;;;;;2.03;1.33;;;6.00;99.90;;;;;;4976352;28;20087;-77
2021/03/17 04:33:48;;;;;;;2.60;1.17;;;5.90;99.90;;;;;;4973715;28;20035;-76
2021/03/17 04:36:16;;;;;;;1.33;1.05;;;5.80;99.90;;;;;;4973488;28;20428;-76
2021/03/17 04:38:43;;;;;;;2.40;1.10;;;5.80;99.90;;;;;;4966359;28;20160;-77
2021/03/17 04:41:54;;;;;;;4.50;1.40;;;5.90;99.90;;;;;;4968524;28;20022;-76
2021/03/17 04:44:46;;;;;;;1.63;1.35;;;5.90;99.90;;;;;;4936390;28;20035;-76
2021/03/17 04:47:24;;;;;;;3.42;1.10;;;5.80;99.90;;;;;;4975449;28;20474;-76
2021/03/17 04:50:00;;;;;;;0.73;0.70;;;5.60;99.90;;;;;;4969163;28;20064;-76
2021/03/17 04:52:28;;;;;;;1.92;1.58;;;5.50;99.90;;;;;;4967204;28;20048;-77
2021/03/17 04:54:54;;;;;;;3.83;1.45;;;5.50;99.90;;;;;;4970612;28;20019;-76
2021/03/17 04:57:25;;;;;;;1.05;1.02;;;5.50;99.90;;;;;;4971774;28;20019;-76
2021/03/17 04:59:53;;;;;;;4.45;1.27;;;5.50;99.90;;;;;;4970847;28;20074;-75
2021/03/17 05:02:27;;;;;;;1.48;1.05;;;5.50;99.90;;;;;;4972385;28;20023;-76
2021/03/17 05:04:54;;;;;;;3.38;1.50;;;5.50;99.90;;;;;;4970599;28;20113;-76
2021/03/17 05:07:21;;;;;;;2.42;1.35;;;5.50;99.90;;;;;;4973001;28;20022;-77
2021/03/17 05:09:48;;;;;;;3.47;1.50;;;5.50;99.90;;;;;;4970943;28;20062;-76
2021/03/17 05:12:16;;;;;;;2.13;1.15;;;5.60;99.90;;;;;;4973782;28;20037;-76
2021/03/17 05:14:43;;;;;;;3.95;0.95;;;5.60;99.90;;;;;;4973131;28;20026;-76
2021/03/17 05:17:11;;;;;;;1.42;1.17;;;5.60;99.90;;;;;;4975558;28;20150;-76
2021/03/17 05:19:39;;;;;;;4.38;0.70;;;5.60;99.90;;;;;;4973521;28;20031;-76
2021/03/17 05:22:06;;;;;;;1.42;1.00;;;5.60;99.90;;;;;;4970284;28;20023;-76
2021/03/17 05:24:33;;;;;;;3.75;1.20;;;5.70;99.90;;;;;;4973010;28;20073;-76
2021/03/17 05:27:07;;;;;;;3.50;1.10;;;5.60;99.90;;;;;;4974431;28;20026;-76
2021/03/17 05:29:33;;;;;;;3.50;1.40;;;5.70;99.90;;;;;;4973381;28;20031;-76
2021/03/17 05:32:02;;;;;;;2.58;1.20;;;5.60;99.90;;;;;;4975464;28;20452;-76
2021/03/17 05:34:28;;;;;;;4.43;1.77;;;5.70;99.90;;;;;;4972119;28;20038;-76
2021/03/17 05:36:57;;;;;;;5.93;2.20;;;5.80;99.90;;;;;;4972762;28;20097;-76
2021/03/17 05:39:23;;;;;;;4.43;1.70;;;5.90;99.90;;;;;;4974035;28;20037;-76
2021/03/17 05:41:49;;;;;;;2.92;1.48;;;5.90;99.90;;;;;;4975440;28;20018;-76
2021/03/17 05:44:15;;;;;;;5.50;1.60;;;5.90;99.90;;;;;;4971849;28;20027;-76
2021/03/17 05:46:43;;;;;;;4.32;1.80;;;5.90;99.90;;;;;;4968296;28;20030;-76
2021/03/17 05:49:10;;;;;;;3.50;1.63;;;6.00;99.90;;;;;;4965218;28;20049;-76
2021/03/17 05:51:36;;;;;;;4.88;1.20;;;6.00;99.90;;;;;;4969378;28;20389;-76
2021/03/17 05:54:03;;;;;;;3.60;2.55;;;6.10;99.90;;;;;;4974139;28;20030;-76
2021/03/17 05:56:30;;;;;;;3.72;1.40;;;6.20;99.90;;;;;;4972315;28;20027;-76
2021/03/17 05:59:00;;;;;;;3.05;1.60;;;6.20;99.90;;;;;;4966791;28;20030;-76
2021/03/17 06:01:27;;;;;;;2.22;1.67;;;6.20;99.90;;;;;;4972960;28;20034;-75
2021/03/17 06:03:53;;;;;;;6.85;2.25;;;6.10;99.90;;;;;;4973660;28;20027;-76
2021/03/17 06:06:20;;;;;;;6.72;3.65;;;6.20;99.90;;;;;;4972018;28;20026;-76
2021/03/17 06:08:47;;;;;;;6.32;1.88;;;6.20;99.90;;;;;;4970897;28;20041;-76
2021/03/17 06:11:14;;;;;;;4.03;2.20;;;6.20;99.90;;;;;;4967516;28;20421;-76
2021/03/17 06:13:47;;;;;;;12.05;2.10;;;6.20;99.90;;;;;;4973430;28;20516;-76
2021/03/17 06:16:16;;;;;;;2.92;2.58;;;6.20;99.90;;;;;;4969333;28;20031;-76
2021/03/17 06:18:44;;;;;;;5.25;2.95;;;6.20;99.90;;;;;;4968613;28;20070;-76
2021/03/17 06:21:17;;;;;;;2.83;2.10;;;6.20;99.90;;;;;;4967823;28;20018;-76
2021/03/17 06:23:45;;;;;;;10.52;2.05;;;6.20;99.90;;;;;;4973820;28;20121;-76
2021/03/17 06:26:11;;;;;;;3.33;1.80;;;6.20;99.90;;;;;;4973111;28;20018;-76
2021/03/17 06:28:36;;;;;;;6.57;2.20;;;6.20;99.90;;;;;;4973159;28;20389;-76
2021/03/17 06:31:03;;;;;;;3.50;2.38;;;6.40;99.90;;;;;;4974252;28;20034;-76
2021/03/17 06:33:29;;;;;;;4.00;1.98;;;6.40;99.90;;;;;;4974133;28;20037;-76
2021/03/17 06:36:16;;;;;;;4.97;1.75;;;6.40;99.90;;;;;;4973872;28;20110;-76
2021/03/17 06:38:43;;;;;;;4.05;2.33;;;6.50;99.90;;;;;;4973451;28;20041;-76
2021/03/17 06:41:29;;;;;;;4.07;2.83;;;6.60;99.90;;;;;;4976188;28;20026;-76
2021/03/17 06:48:23;;;;;;;4.50;2.50;;;6.80;99.90;;;;;;4896513;28;20050;-76
2021/03/17 06:51:17;;;;;;;6.80;2.40;;;6.90;99.90;;;;;;4977959;28;20513;-76
2021/03/17 06:53:52;;;;;;;3.25;2.08;;;7.00;99.90;;;;;;4976475;28;20520;-76
2021/03/17 06:56:32;;;;;;;7.00;3.22;;;7.00;99.90;;;;;;4965759;28;20051;-76
2021/03/17 06:59:00;;;;;;;9.52;2.20;;;7.10;99.90;;;;;;4969849;28;20035;-76
2021/03/17 07:01:36;;;;;;;9.32;3.25;;;7.20;99.90;;;;;;4975683;28;20101;-77
2021/03/17 07:04:35;;;;;;;6.25;2.60;;;7.30;99.90;;;;;;4972939;28;20031;-76
2021/03/17 07:07:02;;;;;;;7.70;3.70;;;7.40;99.90;;;;;;4973930;28;20027;-76
2021/03/17 07:09:31;;;;;;;6.07;2.65;;;7.50;99.90;;;;;;4974828;28;20026;-76
2021/03/17 07:12:10;;;;;;;5.45;2.72;;;7.60;99.90;;;;;;4975333;28;20397;-76
2021/03/17 07:14:38;;;;;;;5.60;2.55;;;7.70;99.90;;;;;;4975155;28;20414;-76
2021/03/17 07:17:28;;;;;;;7.72;3.38;;;7.90;99.90;;;;;;4977896;28;20094;-77
2021/03/17 07:19:54;;;;;;;8.25;3.17;;;8.10;99.90;;;;;;4975746;28;20051;-76
2021/03/17 07:22:20;;;;;;;6.35;3.13;;;8.30;99.90;;;;;;4974625;28;20216;-76
2021/03/17 07:24:51;;;;;;;5.25;3.75;;;8.40;99.80;;;;;;4975340;28;20057;-78
2021/03/17 07:27:20;;;;;;;5.30;3.03;;;8.50;99.90;;;;;;4977150;28;20025;-76
2021/03/17 07:30:06;;;;;;;5.80;3.10;;;8.60;99.90;;;;;;4973192;28;20065;-76
2021/03/17 07:32:59;;;;;;;4.93;3.33;;;8.70;99.90;;;;;;4977310;28;20031;-76
2021/03/17 07:35:59;;;;;;;6.53;3.05;;;8.80;99.90;;;;;;4970258;28;20037;-79
2021/03/17 07:38:16;;;;;;;9.00;2.38;;;9.00;99.80;;;;;;4972840;28;20043;-76
2021/03/17 07:40:44;;;;;;;6.95;2.58;;;9.10;99.50;;;;;;4985755;28;20074;-76
2021/03/17 07:43:12;;;;;;;7.15;3.30;;;9.00;99.30;;;;;;4977446;28;20026;-76
2021/03/17 07:45:38;;;;;;;6.65;3.80;;;9.10;98.70;;;;;;4978596;28;20069;-76
2021/03/17 07:48:09;;;;;;;8.32;3.28;;;9.10;98.60;;;;;;4977994;28;20015;-76
2021/03/17 07:50:37;;;;;;;7.43;2.73;;;9.10;98.70;;;;;;4977727;28;20023;-76
2021/03/17 07:53:07;;;;;;;10.52;3.28;;;9.20;98.30;;;;;;4977314;28;20054;-76
2021/03/17 07:55:34;;;;;;;4.85;3.45;;;9.30;97.90;;;;;;4978106;28;20042;-77
2021/03/17 07:58:00;;;;;;;4.30;3.00;;;9.40;98.40;;;;;;4978671;28;20021;-76
2021/03/17 08:00:27;;;;;;;10.07;3.38;;;9.50;98.10;;;;;;4979083;28;20026;-76
2021/03/17 08:02:56;;;;;;;5.95;2.60;;;9.60;98.00;;;;;;4978449;28;20034;-77
2021/03/17 08:05:22;;;;;;;11.57;2.20;;;9.80;97.40;;;;;;4979589;28;20472;-77
2021/03/17 08:07:50;;;;;;;8.40;2.25;;;9.90;97.80;;;;;;4979770;28;20030;-76
2021/03/17 08:10:15;;;;;;;5.53;2.30;;;10.10;99.10;;;;;;4978872;28;20035;-77
2021/03/17 08:12:43;;;;;;;6.25;1.10;;;10.20;98.50;;;;;;4979014;28;20112;-77
2021/03/17 08:15:13;;;;;;;2.63;1.50;;;10.40;98.00;;;;;;4980406;28;20038;-76
2021/03/17 08:17:40;;;;;;;2.67;1.77;;;10.50;96.60;;;;;;4983718;28;20019;-77
2021/03/17 08:20:28;;;;;;;2.67;1.60;;;10.60;96.70;;;;;;4981694;28;20046;-77
2021/03/17 08:22:56;;;;;;;7.68;2.00;;;10.60;96.90;;;;;;4977231;28;20046;-77
2021/03/17 08:25:40;;;;;;;2.63;1.42;;;10.90;97.80;;;;;;4979933;28;20648;-77
2021/03/17 08:28:22;;;;;;;3.80;1.77;;;11.00;97.40;;;;;;4979327;28;20023;-77
2021/03/17 08:30:50;;;;;;;4.20;1.98;;;11.20;97.10;;;;;;4979484;28;20550;-77
2021/03/17 08:33:33;;;;;;;7.57;1.63;;;11.40;95.90;;;;;;4978079;28;20031;-77
2021/03/17 08:36:15;;;;;;;2.85;1.30;;;11.50;94.20;;;;;;4977143;28;20485;-76
2021/03/17 08:38:55;;;;;;;1.88;1.25;;;11.40;93.30;;;;;;4977623;28;20089;-76
2021/03/17 08:41:37;;;;;;;1.75;1.25;;;11.30;92.20;;;;;;4978475;28;20457;-77
2021/03/17 08:44:17;;;;;;;2.10;1.33;;;11.30;93.20;;;;;;4979899;28;20015;-77
2021/03/17 08:46:43;;;;;;;2.88;1.25;;;11.40;93.50;;;;;;4978369;28;20389;-77
2021/03/17 08:49:11;;;;;;;2.90;1.48;;;11.50;93.40;;;;;;4977684;28;20027;-77
2021/03/17 08:51:48;;;;;;;2.22;0.90;;;11.60;93.10;;;;;;4975485;28;20481;-77
2021/03/17 08:54:32;;;;;;;3.20;0.70;;;11.60;90.50;;;;;;4976823;28;20061;-76
2021/03/17 08:57:02;;;;;;;1.48;1.23;;;11.60;89.20;;;;;;4977356;28;20051;-77
2021/03/17 09:00:01;;;;;;;3.83;2.05;;;11.50;89.50;;;;;;4993424;28;20058;-77
2021/03/17 09:02:39;;;;;;;1.75;0.90;;;11.60;90.10;;;;;;4977260;28;20042;-77
2021/03/17 09:05:16;;;;;;;7.05;3.85;;;11.70;86.50;;;;;;4976652;28;20038;-77
2021/03/17 09:08:00;;;;;;;3.08;1.63;;;11.70;90.90;;;;;;4973982;28;20031;-77
2021/03/17 09:10:56;;;;;;;4.47;2.60;;;11.80;90.50;;;;;;4974521;28;20637;-77
2021/03/17 09:13:49;;;;;;;16.23;3.50;;;12.00;91.50;;;;;;4971469;28;20039;-75
2021/03/17 09:16:15;;;;;;;6.85;2.00;;;12.00;91.80;;;;;;4972518;28;20041;-75
2021/03/17 09:18:41;;;;;;;14.25;2.78;;;12.00;92.20;;;;;;4975965;28;20469;-75
2021/03/17 09:21:06;;;;;;;6.55;1.23;;;12.00;93.30;;;;;;4974519;28;20042;-75
2021/03/17 09:23:38;;;;;;;11.90;2.00;;;12.00;92.00;;;;;;4971582;28;20098;-75
2021/03/17 09:26:06;;;;;;;6.20;1.53;;;11.90;92.20;;;;;;4974892;28;20038;-75
2021/03/17 09:28:37;;;;;;;5.28;2.30;;;11.90;92.00;;;;;;4984542;28;20100;-75
2021/03/17 09:31:08;;;;;;;1.30;1.20;;;11.90;90.40;;;;;;4974798;28;20513;-75
2021/03/17 09:33:35;;;;;;;5.63;2.35;;;11.80;90.40;;;;;;4983022;28;20034;-74
2021/03/17 09:36:08;;;;;;;3.05;1.70;;;11.70;92.50;;;;;;4982192;28;20123;-74
2021/03/17 09:38:39;;;;;;;5.88;1.77;;;11.60;94.50;;;;;;4986450;28;20110;-73
2021/03/17 09:41:11;;;;;;;2.65;1.35;;;11.60;95.30;;;;;;4986607;28;20030;-74
2021/03/17 09:43:52;;;;;;;2.15;1.83;;;11.50;98.50;;;;;;4962844;28;20063;-74
2021/03/17 09:46:28;;;;;;;3.53;1.38;;;11.50;98.30;;;;;;4963419;29;20306;-73
2021/03/17 09:49:30;;;;;;;3.22;1.65;;;11.50;99.20;;;;;;4975616;28;20037;-73
2021/03/17 09:52:14;;;;;;;2.88;1.35;;;11.30;99.90;;;;;;4970933;28;20081;-75
2021/03/17 09:54:40;;;;;;;3.45;1.05;;;11.20;99.90;;;;;;4973300;28;20089;-74
2021/03/17 09:57:07;;;;;;;5.40;2.88;;;11.20;99.90;;;;;;4971447;28;20027;-75
2021/03/17 09:59:36;;;;;;;1.30;0.73;;;11.20;99.90;;;;;;4988077;28;20058;-75
2021/03/17 10:02:25;;;;;;;4.70;2.42;;;11.20;99.90;;;;;;4990641;28;20365;-75
2021/03/17 10:04:56;;;;;;;8.45;1.35;;;11.20;99.90;;;;;;4990315;28;20027;-75
2021/03/17 10:07:27;;;;;;;8.43;1.05;;;11.10;99.90;;;;;;4990531;28;20023;-75
2021/03/17 10:09:55;;;;;;;4.28;1.30;;;11.00;99.90;;;;;;4991978;28;20269;-75
2021/03/17 10:12:26;;;;;;;1.90;1.30;;;10.90;99.90;;;;;;4974939;28;20111;-75
2021/03/17 10:15:01;;;;;;;8.43;1.47;;;11.00;99.90;;;;;;4968914;28;20105;-75
2021/03/17 10:17:29;;;;;;;4.03;1.15;;;10.90;99.00;;;;;;4977922;28;20022;-76
2021/03/17 10:19:58;;;;;;;13.38;1.52;;;10.90;98.20;;;;;;4976833;28;20137;-74
2021/03/17 10:22:29;;;;;;;4.03;2.58;;;10.90;99.90;;;;;;4977813;28;20133;-75
2021/03/17 10:24:56;;;;;;;6.27;4.63;;;11.00;99.90;;;;;;4976152;28;20030;-75
2021/03/17 10:27:38;;;;;;;5.57;3.40;;;11.00;99.90;;;;;;4977482;28;20125;-75
2021/03/17 10:30:29;;;;;;;1.55;1.45;;;11.00;99.90;;;;;;4978832;28;20035;-75
2021/03/17 10:32:56;;;;;;;6.75;1.55;;;11.00;99.90;;;;;;4976811;28;20105;-75
2021/03/17 10:35:23;;;;;;;5.82;1.52;;;10.90;99.90;;;;;;4976987;28;20030;-75
2021/03/17 10:37:50;;;;;;;4.60;1.45;;;10.90;99.90;;;;;;4977108;28;20039;-75
2021/03/17 10:40:19;;;;;;;4.15;1.10;;;11.10;99.90;;;;;;4977833;28;20034;-76
2021/03/17 10:42:48;;;;;;;3.33;0.95;;;11.10;99.90;;;;;;4978405;28;20034;-75
2021/03/17 10:45:19;;;;;;;3.67;0.73;;;11.20;99.90;;;;;;4976996;28;20121;-75
2021/03/17 10:47:46;;;;;;;1.65;0.88;;;11.10;99.90;;;;;;4978035;28;20051;-75
2021/03/17 10:50:18;;;;;;;6.65;2.72;;;11.10;99.90;;;;;;4977229;28;20078;-75
2021/03/17 10:52:47;;;;;;;3.38;1.35;;;11.20;99.90;;;;;;4977561;28;20037;-75
2021/03/17 10:55:13;;;;;;;2.25;0.95;;;11.20;99.90;;;;;;4973368;28;20069;-75
2021/03/17 10:57:40;;;;;;;2.15;1.42;;;11.30;99.90;;;;;;4978070;28;20061;-73
2021/03/17 11:00:20;;;;;;;3.33;1.30;;;11.40;99.90;;;;;;4978592;28;20023;-74
2021/03/17 11:02:46;;;;;;;1.67;1.00;;;11.60;99.90;;;;;;4977493;28;20106;-73
2021/03/17 11:05:20;;;;;;;3.72;1.13;;;11.70;99.90;;;;;;4976532;28;20381;-73
2021/03/17 11:07:54;;;;;;;13.38;1.45;;;11.70;99.90;;;;;;4976595;28;20449;-73
2021/03/17 11:10:42;;;;;;;2.20;0.90;;;11.80;99.90;;;;;;4977778;28;20037;-73
2021/03/17 11:13:17;;;;;;;3.45;1.00;;;11.90;99.90;;;;;;4978296;28;20030;-73
2021/03/17 11:15:42;;;;;;;2.22;1.40;;;11.80;99.90;;;;;;4976249;28;20474;-76
2021/03/17 11:18:09;;;;;;;1.15;1.13;;;11.70;99.90;;;;;;4977662;28;20043;-74
2021/03/17 11:20:43;;;;;;;1.85;1.10;;;11.70;99.90;;;;;;4980623;28;20023;-74
2021/03/17 11:23:15;;;;;;;0.75;0.68;;;11.70;99.90;;;;;;4960997;29;20027;-74
2021/03/17 11:25:41;;;;;;;3.92;0.90;;;11.40;99.90;;;;;;4961638;28;20023;-74
2021/03/17 11:28:12;;;;;;;1.48;1.13;;;11.30;99.90;;;;;;4957785;29;20493;-74
2021/03/17 11:30:45;;;;;;;1.70;0.80;;;11.20;99.90;;;;;;4961250;28;20051;-75
2021/03/17 11:33:14;;;;;;;1.98;1.00;;;11.10;99.90;;;;;;4975046;28;20031;-75
2021/03/17 11:35:42;;;;;;;1.42;1.20;;;11.00;99.90;;;;;;4967098;28;20030;-74
2021/03/17 11:38:08;;;;;;;3.15;1.67;;;11.00;99.90;;;;;;4953731;29;20096;-74
2021/03/17 11:40:34;;;;;;;2.08;1.48;;;11.10;99.90;;;;;;4953688;29;20117;-75
2021/03/17 11:43:28;;;;;;;2.05;1.20;;;11.20;99.90;;;;;;4955423;29;20102;-75
2021/03/17 11:45:56;;;;;;;1.98;1.10;;;11.30;99.90;;;;;;4969531;28;20045;-75
2021/03/17 11:48:22;;;;;;;3.38;1.50;;;11.40;99.90;;;;;;4975164;28;20085;-75
2021/03/17 11:50:52;;;;;;;6.75;1.77;;;11.30;99.90;;;;;;4974069;28;20035;-75
2021/03/17 11:53:19;;;;;;;7.03;1.42;;;11.30;99.90;;;;;;4976223;28;20030;-75
2021/03/17 11:55:46;;;;;;;7.68;1.25;;;11.50;99.90;;;;;;4975167;28;20515;-75
2021/03/17 11:58:12;;;;;;;5.10;1.38;;;11.50;99.90;;;;;;4974414;28;20027;-75
2021/03/17 12:00:38;;;;;;;2.55;1.05;;;11.50;99.90;;;;;;4974582;28;20026;-75
2021/03/17 12:03:05;;;;;;;5.80;1.60;;;11.50;99.90;;;;;;4968081;28;20046;-75
2021/03/17 12:05:32;;;;;;;7.43;2.05;;;11.50;99.90;;;;;;4957441;29;20023;-75
2021/03/17 12:07:57;;;;;;;2.30;1.23;;;11.70;99.90;;;;;;4965296;28;20520;-75
2021/03/17 12:10:26;;;;;;;2.67;0.82;;;11.70;99.90;;;;;;4975553;28;20031;-75
2021/03/17 12:12:52;;;;;;;1.40;0.70;;;11.70;99.90;;;;;;4968925;28;20073;-75
2021/03/17 12:15:20;;;;;;;3.35;1.70;;;11.70;99.90;;;;;;4977643;28;20035;-75
2021/03/17 12:17:47;;;;;;;4.03;1.10;;;11.90;99.90;;;;;;4976018;28;20023;-75
2021/03/17 12:20:14;;;;;;;3.65;1.30;;;12.00;99.90;;;;;;4956158;29;20474;-74
2021/03/17 12:22:40;;;;;;;1.90;0.77;;;12.00;99.90;;;;;;4955933;28;20035;-75
2021/03/17 12:25:08;;;;;;;2.75;0.60;;;12.00;99.90;;;;;;4975689;28;20054;-74
2021/03/17 12:27:35;;;;;;;2.78;1.55;;;11.80;99.90;;;;;;4973235;28;20027;-74
2021/03/17 12:30:02;;;;;;;3.20;1.38;;;11.80;99.90;;;;;;4974309;28;20030;-74
2021/03/17 12:32:47;;;;;;;0.70;0.70;;;11.70;99.90;;;;;;4969560;28;20042;-75
2021/03/17 12:35:49;;;;;;;1.80;0.90;;;11.70;99.90;;;;;;4957454;28;20027;-74
2021/03/17 12:38:31;;;;;;;2.47;0.90;;;11.70;99.90;;;;;;4955771;29;20513;-75
2021/03/17 12:41:09;;;;;;;0.70;0.47;;;11.70;99.90;;;;;;4961886;28;20049;-75
2021/03/17 12:43:48;;;;;;;0.82;0.60;;;11.80;99.90;;;;;;4976671;28;20055;-74
2021/03/17 12:46:19;;;;;;;2.63;1.45;;;11.80;99.90;;;;;;4974739;28;20084;-75
2021/03/17 12:48:45;;;;;;;4.10;1.98;;;11.80;99.90;;;;;;4961269;28;20521;-75
2021/03/17 12:51:11;;;;;;;2.92;1.23;;;11.70;99.90;;;;;;4968229;28;20177;-76
2021/03/17 12:53:37;;;;;;;2.45;1.05;;;11.60;99.90;;;;;;4975287;28;20034;-75
2021/03/17 12:56:28;;;;;;;3.53;1.17;;;11.60;99.90;;;;;;4972091;28;20027;-75
2021/03/17 12:58:54;;;;;;;3.57;1.50;;;11.60;99.90;;;;;;4974871;28;20039;-75
2021/03/17 13:01:52;;;;;;;5.30;1.38;;;11.50;99.90;;;;;;4968946;28;20033;-75
2021/03/17 13:04:18;;;;;;;1.58;1.30;;;11.40;99.90;;;;;;4982466;28;20018;-74
2021/03/17 13:06:44;;;;;;;4.05;0.95;;;11.30;99.90;;;;;;4971178;28;20037;-75
2021/03/17 13:09:10;;;;;;;2.53;1.02;;;11.30;99.90;;;;;;4972567;28;20058;-74
2021/03/17 13:11:39;;;;;;;2.63;0.95;;;11.40;99.90;;;;;;4969434;28;20090;-74
2021/03/17 13:14:11;;;;;;;5.10;1.42;;;11.50;99.90;;;;;;4964374;28;20026;-74
2021/03/17 13:16:38;;;;;;;2.53;1.33;;;11.80;99.90;;;;;;4972134;28;20022;-75
2021/03/17 13:19:36;;;;;;;5.13;1.10;;;12.00;99.90;;;;;;4968398;28;20046;-74
2021/03/17 13:22:34;;;;;;;2.45;0.70;;;12.30;99.90;;;;;;4972017;28;20389;-74
2021/03/17 13:25:36;;;;;;;0.90;0.80;;;12.50;99.90;;;;;;4965867;28;20596;-74